sensor_id;sensor_type;location;lat;lon;timestamp;pressure;altitude;pressure_sealevel;temperature;humidity
13581;BME280;6861;46.170;7.222;2022-12-18T00:00:06;96953.22;;;2.63;58.08
13581;BME280;6861;46.170;7.222;2022-12-18T00:02:34;96944.06;;;2.61;58.41
13581;BME280;6861;46.170;7.222;2022-12-18T00:05:03;96941.09;;;2.57;58.95
13581;BME280;6861;46.170;7.222;2022-12-18T00:07:31;96945.25;;;2.58;58.16
13581;BME280;6861;46.170;7.222;2022-12-18T00:10:00;96960.75;;;2.58;59.09
13581;BME280;6861;46.170;7.222;2022-12-18T00:12:28;96954.38;;;2.61;58.48
13581;BME280;6861;46.170;7.222;2022-12-18T00:14:56;96956.41;;;2.59;59.22
13581;BME280;6861;46.170;7.222;2022-12-18T00:17:25;96956.78;;;2.56;58.49
13581;BME280;6861;46.170;7.222;2022-12-18T00:19:53;96952.81;;;2.60;58.10
13581;BME280;6861;46.170;7.222;2022-12-18T00:22:21;96958.38;;;2.63;58.36
13581;BME280;6861;46.170;7.222;2022-12-18T00:24:50;96962.19;;;2.68;58.66
13581;BME280;6861;46.170;7.222;2022-12-18T00:27:18;96965.97;;;2.72;57.80
13581;BME280;6861;46.170;7.222;2022-12-18T00:29:47;96967.19;;;2.76;57.95
13581;BME280;6861;46.170;7.222;2022-12-18T00:32:16;96971.22;;;2.85;58.28
13581;BME280;6861;46.170;7.222;2022-12-18T00:34:45;96976.00;;;2.88;57.96
13581;BME280;6861;46.170;7.222;2022-12-18T00:37:13;96971.84;;;2.87;57.69
13581;BME280;6861;46.170;7.222;2022-12-18T00:39:48;96975.19;;;2.81;57.67
13581;BME280;6861;46.170;7.222;2022-12-18T00:42:16;96974.94;;;2.76;57.77
13581;BME280;6861;46.170;7.222;2022-12-18T00:45:02;96983.69;;;2.75;58.63
13581;BME280;6861;46.170;7.222;2022-12-18T00:47:38;96993.03;;;2.76;58.10
13581;BME280;6861;46.170;7.222;2022-12-18T00:50:09;96983.09;;;2.73;57.69
13581;BME280;6861;46.170;7.222;2022-12-18T00:52:37;96995.03;;;2.74;58.53
13581;BME280;6861;46.170;7.222;2022-12-18T00:55:06;96997.00;;;2.72;58.39
13581;BME280;6861;46.170;7.222;2022-12-18T00:57:34;96995.41;;;2.71;58.07
13581;BME280;6861;46.170;7.222;2022-12-18T01:00:03;96999.34;;;2.67;57.74
13581;BME280;6861;46.170;7.222;2022-12-18T01:02:31;97010.06;;;2.63;58.46
13581;BME280;6861;46.170;7.222;2022-12-18T01:05:00;97003.28;;;2.62;58.05
13581;BME280;6861;46.170;7.222;2022-12-18T01:07:29;97003.88;;;2.58;57.89
13581;BME280;6861;46.170;7.222;2022-12-18T01:09:58;97007.28;;;2.58;57.48
13581;BME280;6861;46.170;7.222;2022-12-18T01:12:26;97008.41;;;2.49;57.82
13581;BME280;6861;46.170;7.222;2022-12-18T01:14:54;97008.53;;;2.41;58.68
13581;BME280;6861;46.170;7.222;2022-12-18T01:17:22;97013.47;;;2.36;57.87
13581;BME280;6861;46.170;7.222;2022-12-18T01:19:50;97016.34;;;2.26;58.52
13581;BME280;6861;46.170;7.222;2022-12-18T01:22:18;97020.66;;;2.19;58.48
13581;BME280;6861;46.170;7.222;2022-12-18T01:24:48;97012.69;;;2.14;58.70
13581;BME280;6861;46.170;7.222;2022-12-18T01:27:16;97019.38;;;2.09;58.96
13581;BME280;6861;46.170;7.222;2022-12-18T01:29:44;97013.97;;;2.04;59.33
13581;BME280;6861;46.170;7.222;2022-12-18T01:32:12;97015.56;;;2.05;58.39
13581;BME280;6861;46.170;7.222;2022-12-18T01:34:40;97012.13;;;1.97;59.24
13581;BME280;6861;46.170;7.222;2022-12-18T01:37:08;97013.91;;;1.97;59.38
13581;BME280;6861;46.170;7.222;2022-12-18T01:39:37;97029.09;;;2.07;59.32
13581;BME280;6861;46.170;7.222;2022-12-18T01:42:11;97028.34;;;2.13;59.17
13581;BME280;6861;46.170;7.222;2022-12-18T01:44:55;97023.81;;;2.15;58.35
13581;BME280;6861;46.170;7.222;2022-12-18T01:47:27;97029.81;;;2.22;58.58
13581;BME280;6861;46.170;7.222;2022-12-18T01:49:58;97038.19;;;2.24;57.60
13581;BME280;6861;46.170;7.222;2022-12-18T01:52:31;97030.94;;;2.34;58.64
13581;BME280;6861;46.170;7.222;2022-12-18T01:55:00;97034.56;;;2.40;58.34
13581;BME280;6861;46.170;7.222;2022-12-18T01:57:31;97036.19;;;2.47;57.29
13581;BME280;6861;46.170;7.222;2022-12-18T02:00:04;97027.09;;;2.51;58.18
13581;BME280;6861;46.170;7.222;2022-12-18T02:02:32;97040.25;;;2.56;57.08
13581;BME280;6861;46.170;7.222;2022-12-18T02:05:02;97046.34;;;2.49;58.22
13581;BME280;6861;46.170;7.222;2022-12-18T02:07:38;97047.66;;;2.38;57.52
13581;BME280;6861;46.170;7.222;2022-12-18T02:10:14;97047.22;;;2.35;57.86
13581;BME280;6861;46.170;7.222;2022-12-18T02:12:48;97042.97;;;2.27;58.41
13581;BME280;6861;46.170;7.222;2022-12-18T02:15:24;97042.56;;;2.23;58.09
13581;BME280;6861;46.170;7.222;2022-12-18T02:17:57;97056.63;;;2.21;57.79
13581;BME280;6861;46.170;7.222;2022-12-18T02:20:33;97053.38;;;2.12;58.37
13581;BME280;6861;46.170;7.222;2022-12-18T02:23:13;97049.13;;;2.05;59.09
13581;BME280;6861;46.170;7.222;2022-12-18T02:26:05;97049.06;;;1.98;59.19
13581;BME280;6861;46.170;7.222;2022-12-18T02:28:38;97061.53;;;1.94;58.86
13581;BME280;6861;46.170;7.222;2022-12-18T02:31:11;97058.69;;;1.89;58.54
13581;BME280;6861;46.170;7.222;2022-12-18T02:33:44;97037.19;;;1.82;58.10
13581;BME280;6861;46.170;7.222;2022-12-18T02:36:12;97041.25;;;1.91;58.49
13581;BME280;6861;46.170;7.222;2022-12-18T02:38:43;97044.09;;;1.96;59.05
13581;BME280;6861;46.170;7.222;2022-12-18T02:41:14;97038.91;;;1.96;58.29
13581;BME280;6861;46.170;7.222;2022-12-18T02:43:47;97047.72;;;2.02;58.71
13581;BME280;6861;46.170;7.222;2022-12-18T02:46:29;97053.06;;;2.01;58.42
13581;BME280;6861;46.170;7.222;2022-12-18T02:49:05;97061.59;;;2.01;58.96
13581;BME280;6861;46.170;7.222;2022-12-18T02:51:42;97061.72;;;1.93;57.92
13581;BME280;6861;46.170;7.222;2022-12-18T02:54:16;97063.94;;;1.96;58.91
13581;BME280;6861;46.170;7.222;2022-12-18T02:56:52;97059.56;;;1.96;57.97
13581;BME280;6861;46.170;7.222;2022-12-18T02:59:26;97061.78;;;2.00;58.87
13581;BME280;6861;46.170;7.222;2022-12-18T03:01:59;97063.13;;;1.95;57.81
13581;BME280;6861;46.170;7.222;2022-12-18T03:04:36;97074.25;;;1.96;58.95
13581;BME280;6861;46.170;7.222;2022-12-18T03:07:09;97062.41;;;2.02;58.83
13581;BME280;6861;46.170;7.222;2022-12-18T03:09:42;97059.69;;;2.10;58.54
13581;BME280;6861;46.170;7.222;2022-12-18T03:12:17;97056.19;;;2.17;57.77
13581;BME280;6861;46.170;7.222;2022-12-18T03:14:56;97059.94;;;2.15;58.24
13581;BME280;6861;46.170;7.222;2022-12-18T03:17:29;97060.81;;;2.01;58.36
13581;BME280;6861;46.170;7.222;2022-12-18T03:20:02;97064.47;;;1.91;58.38
13581;BME280;6861;46.170;7.222;2022-12-18T03:22:32;97066.00;;;1.86;58.19
13581;BME280;6861;46.170;7.222;2022-12-18T03:25:04;97062.75;;;1.77;59.10
13581;BME280;6861;46.170;7.222;2022-12-18T03:27:37;97064.13;;;1.73;59.27
13581;BME280;6861;46.170;7.222;2022-12-18T03:30:08;97063.84;;;1.68;58.68
13581;BME280;6861;46.170;7.222;2022-12-18T03:32:41;97072.22;;;1.70;58.82
13581;BME280;6861;46.170;7.222;2022-12-18T03:35:13;97072.03;;;1.72;58.85
13581;BME280;6861;46.170;7.222;2022-12-18T03:37:42;97072.22;;;1.70;58.51
13581;BME280;6861;46.170;7.222;2022-12-18T03:40:10;97089.03;;;1.66;58.51
13581;BME280;6861;46.170;7.222;2022-12-18T03:42:46;97094.47;;;1.56;59.17
13581;BME280;6861;46.170;7.222;2022-12-18T03:45:21;97086.38;;;1.45;58.47
13581;BME280;6861;46.170;7.222;2022-12-18T03:47:59;97089.16;;;1.43;58.95
13581;BME280;6861;46.170;7.222;2022-12-18T03:50:36;97090.31;;;1.41;58.91
13581;BME280;6861;46.170;7.222;2022-12-18T03:53:17;97092.25;;;1.39;58.80
13581;BME280;6861;46.170;7.222;2022-12-18T03:55:48;97094.22;;;1.37;59.35
13581;BME280;6861;46.170;7.222;2022-12-18T03:58:22;97095.56;;;1.33;59.71
13581;BME280;6861;46.170;7.222;2022-12-18T04:00:52;97098.50;;;1.29;59.17
13581;BME280;6861;46.170;7.222;2022-12-18T04:03:22;97101.69;;;1.31;58.55
13581;BME280;6861;46.170;7.222;2022-12-18T04:05:54;97097.69;;;1.29;58.88
13581;BME280;6861;46.170;7.222;2022-12-18T04:08:23;97104.63;;;1.28;58.86
13581;BME280;6861;46.170;7.222;2022-12-18T04:10:52;97094.03;;;1.23;58.71
13581;BME280;6861;46.170;7.222;2022-12-18T04:13:28;97101.22;;;1.13;59.74
13581;BME280;6861;46.170;7.222;2022-12-18T04:15:57;97093.41;;;1.07;59.37
13581;BME280;6861;46.170;7.222;2022-12-18T04:18:25;97109.31;;;1.10;59.88
13581;BME280;6861;46.170;7.222;2022-12-18T04:20:54;97106.56;;;1.12;59.12
13581;BME280;6861;46.170;7.222;2022-12-18T04:23:22;97107.00;;;1.15;59.72
13581;BME280;6861;46.170;7.222;2022-12-18T04:25:50;97111.47;;;1.21;59.40
13581;BME280;6861;46.170;7.222;2022-12-18T04:28:18;97107.56;;;1.25;59.23
13581;BME280;6861;46.170;7.222;2022-12-18T04:30:48;97114.31;;;1.26;58.97
13581;BME280;6861;46.170;7.222;2022-12-18T04:33:17;97108.53;;;1.24;59.38
13581;BME280;6861;46.170;7.222;2022-12-18T04:35:45;97113.69;;;1.24;58.82
13581;BME280;6861;46.170;7.222;2022-12-18T04:38:13;97114.31;;;1.26;58.83
13581;BME280;6861;46.170;7.222;2022-12-18T04:40:42;97109.06;;;1.35;58.97
13581;BME280;6861;46.170;7.222;2022-12-18T04:43:10;97114.13;;;1.43;58.12
13581;BME280;6861;46.170;7.222;2022-12-18T04:45:39;97119.91;;;1.45;58.06
13581;BME280;6861;46.170;7.222;2022-12-18T04:48:08;97128.97;;;1.55;58.96
13581;BME280;6861;46.170;7.222;2022-12-18T04:50:37;97119.72;;;1.61;58.87
13581;BME280;6861;46.170;7.222;2022-12-18T04:53:06;97125.69;;;1.61;58.80
13581;BME280;6861;46.170;7.222;2022-12-18T04:55:35;97127.47;;;1.61;58.31
13581;BME280;6861;46.170;7.222;2022-12-18T04:58:04;97131.38;;;1.57;58.02
13581;BME280;6861;46.170;7.222;2022-12-18T05:00:32;97123.81;;;1.41;58.50
13581;BME280;6861;46.170;7.222;2022-12-18T05:03:00;97132.63;;;1.31;59.13
13581;BME280;6861;46.170;7.222;2022-12-18T05:05:30;97128.53;;;1.22;58.97
13581;BME280;6861;46.170;7.222;2022-12-18T05:07:59;97131.28;;;1.21;58.56
13581;BME280;6861;46.170;7.222;2022-12-18T05:10:28;97133.69;;;1.22;59.16
13581;BME280;6861;46.170;7.222;2022-12-18T05:13:03;97137.25;;;1.21;59.45
13581;BME280;6861;46.170;7.222;2022-12-18T05:15:32;97142.41;;;1.21;58.58
13581;BME280;6861;46.170;7.222;2022-12-18T05:18:01;97132.97;;;1.14;58.82
13581;BME280;6861;46.170;7.222;2022-12-18T05:20:31;97150.91;;;1.07;59.27
13581;BME280;6861;46.170;7.222;2022-12-18T05:22:59;97148.13;;;0.94;59.76
13581;BME280;6861;46.170;7.222;2022-12-18T05:25:28;97146.81;;;0.83;59.21
13581;BME280;6861;46.170;7.222;2022-12-18T05:27:56;97146.88;;;0.75;59.24
13581;BME280;6861;46.170;7.222;2022-12-18T05:30:25;97146.94;;;0.67;59.37
13581;BME280;6861;46.170;7.222;2022-12-18T05:32:54;97138.97;;;0.54;59.79
13581;BME280;6861;46.170;7.222;2022-12-18T05:35:22;97159.13;;;0.50;60.40
13581;BME280;6861;46.170;7.222;2022-12-18T05:37:51;97154.25;;;0.55;60.10
13581;BME280;6861;46.170;7.222;2022-12-18T05:40:19;97159.34;;;0.63;59.75
13581;BME280;6861;46.170;7.222;2022-12-18T05:42:47;97164.16;;;0.67;60.25
13581;BME280;6861;46.170;7.222;2022-12-18T05:45:16;97159.34;;;0.63;59.63
13581;BME280;6861;46.170;7.222;2022-12-18T05:47:44;97171.31;;;0.56;59.78
13581;BME280;6861;46.170;7.222;2022-12-18T05:50:12;97154.94;;;0.49;59.96
13581;BME280;6861;46.170;7.222;2022-12-18T05:52:40;97172.34;;;0.47;60.38
13581;BME280;6861;46.170;7.222;2022-12-18T05:55:10;97171.09;;;0.43;60.13
13581;BME280;6861;46.170;7.222;2022-12-18T05:57:38;97172.69;;;0.44;60.15
13581;BME280;6861;46.170;7.222;2022-12-18T06:00:08;97173.66;;;0.43;60.16
13581;BME280;6861;46.170;7.222;2022-12-18T06:02:36;97178.81;;;0.43;59.98
13581;BME280;6861;46.170;7.222;2022-12-18T06:05:05;97183.97;;;0.43;60.15
13581;BME280;6861;46.170;7.222;2022-12-18T06:07:33;97177.19;;;0.42;59.83
13581;BME280;6861;46.170;7.222;2022-12-18T06:10:02;97178.97;;;0.42;59.55
13581;BME280;6861;46.170;7.222;2022-12-18T06:12:31;97177.25;;;0.34;60.61
13581;BME280;6861;46.170;7.222;2022-12-18T06:15:00;97179.03;;;0.33;60.15
13581;BME280;6861;46.170;7.222;2022-12-18T06:17:29;97181.44;;;0.35;60.46
13581;BME280;6861;46.170;7.222;2022-12-18T06:19:57;97187.38;;;0.36;59.62
13581;BME280;6861;46.170;7.222;2022-12-18T06:22:25;97181.78;;;0.32;59.68
13581;BME280;6861;46.170;7.222;2022-12-18T06:24:53;97190.81;;;0.28;60.00
13581;BME280;6861;46.170;7.222;2022-12-18T06:27:22;97185.16;;;0.32;60.09
13581;BME280;6861;46.170;7.222;2022-12-18T06:29:51;97191.56;;;0.37;59.84
13581;BME280;6861;46.170;7.222;2022-12-18T06:32:19;97194.59;;;0.40;59.89
13581;BME280;6861;46.170;7.222;2022-12-18T06:34:47;97200.38;;;0.42;59.41
13581;BME280;6861;46.170;7.222;2022-12-18T06:37:15;97209.25;;;0.40;60.33
13581;BME280;6861;46.170;7.222;2022-12-18T06:39:43;97205.88;;;0.39;59.96
13581;BME280;6861;46.170;7.222;2022-12-18T06:42:11;97210.38;;;0.37;60.10
13581;BME280;6861;46.170;7.222;2022-12-18T06:44:39;97212.31;;;0.35;60.26
13581;BME280;6861;46.170;7.222;2022-12-18T06:47:09;97219.75;;;0.30;59.87
13581;BME280;6861;46.170;7.222;2022-12-18T06:49:37;97216.72;;;0.26;60.29
13581;BME280;6861;46.170;7.222;2022-12-18T06:52:05;97215.28;;;0.24;60.02
13581;BME280;6861;46.170;7.222;2022-12-18T06:54:33;97213.34;;;0.26;60.34
13581;BME280;6861;46.170;7.222;2022-12-18T06:57:01;97215.41;;;0.30;59.70
13581;BME280;6861;46.170;7.222;2022-12-18T06:59:29;97213.94;;;0.36;60.09
13581;BME280;6861;46.170;7.222;2022-12-18T07:01:57;97220.69;;;0.37;59.71
13581;BME280;6861;46.170;7.222;2022-12-18T07:04:29;97224.53;;;0.41;59.49
13581;BME280;6861;46.170;7.222;2022-12-18T07:06:57;97226.75;;;0.44;59.36
13581;BME280;6861;46.170;7.222;2022-12-18T07:09:25;97219.31;;;0.49;59.88
13581;BME280;6861;46.170;7.222;2022-12-18T07:11:56;97233.28;;;0.55;59.33
13581;BME280;6861;46.170;7.222;2022-12-18T07:14:25;97230.53;;;0.56;59.72
13581;BME280;6861;46.170;7.222;2022-12-18T07:16:53;97236.38;;;0.50;59.75
13581;BME280;6861;46.170;7.222;2022-12-18T07:19:24;97238.66;;;0.45;59.55
13581;BME280;6861;46.170;7.222;2022-12-18T07:21:53;97238.53;;;0.39;59.31
13581;BME280;6861;46.170;7.222;2022-12-18T07:24:21;97244.81;;;0.36;59.99
13581;BME280;6861;46.170;7.222;2022-12-18T07:26:49;97245.63;;;0.37;59.47
13581;BME280;6861;46.170;7.222;2022-12-18T07:29:18;97249.63;;;0.39;59.53
13581;BME280;6861;46.170;7.222;2022-12-18T07:31:46;97259.13;;;0.39;59.72
13581;BME280;6861;46.170;7.222;2022-12-18T07:34:14;97262.22;;;0.34;59.63
13581;BME280;6861;46.170;7.222;2022-12-18T07:36:43;97268.97;;;0.35;59.80
13581;BME280;6861;46.170;7.222;2022-12-18T07:39:12;97270.41;;;0.38;59.86
13581;BME280;6861;46.170;7.222;2022-12-18T07:41:40;97272.47;;;0.42;59.99
13581;BME280;6861;46.170;7.222;2022-12-18T07:44:13;97278.59;;;0.41;59.96
13581;BME280;6861;46.170;7.222;2022-12-18T07:46:41;97280.53;;;0.39;60.00
13581;BME280;6861;46.170;7.222;2022-12-18T07:49:09;97284.88;;;0.39;59.86
13581;BME280;6861;46.170;7.222;2022-12-18T07:51:37;97275.25;;;0.32;59.18
13581;BME280;6861;46.170;7.222;2022-12-18T07:54:06;97283.44;;;0.36;59.59
13581;BME280;6861;46.170;7.222;2022-12-18T07:56:35;97286.69;;;0.30;59.27
13581;BME280;6861;46.170;7.222;2022-12-18T07:59:03;97285.06;;;0.29;59.93
13581;BME280;6861;46.170;7.222;2022-12-18T08:01:31;97288.63;;;0.28;59.66
13581;BME280;6861;46.170;7.222;2022-12-18T08:04:00;97291.50;;;0.33;59.77
13581;BME280;6861;46.170;7.222;2022-12-18T08:06:28;97301.72;;;0.49;59.29
13581;BME280;6861;46.170;7.222;2022-12-18T08:08:57;97308.41;;;0.67;59.04
13581;BME280;6861;46.170;7.222;2022-12-18T08:11:27;97299.63;;;0.84;58.42
13581;BME280;6861;46.170;7.222;2022-12-18T08:13:57;97301.31;;;0.91;58.44
13581;BME280;6861;46.170;7.222;2022-12-18T08:16:32;97294.03;;;0.95;58.47
13581;BME280;6861;46.170;7.222;2022-12-18T08:19:00;97307.50;;;1.05;58.44
13581;BME280;6861;46.170;7.222;2022-12-18T08:21:30;97311.06;;;1.04;58.71
13581;BME280;6861;46.170;7.222;2022-12-18T08:24:00;97292.72;;;0.99;58.48
13581;BME280;6861;46.170;7.222;2022-12-18T08:26:30;97302.34;;;1.05;57.86
13581;BME280;6861;46.170;7.222;2022-12-18T08:29:00;97300.75;;;1.04;58.42
13581;BME280;6861;46.170;7.222;2022-12-18T08:31:29;97308.44;;;1.12;58.34
13581;BME280;6861;46.170;7.222;2022-12-18T08:33:58;97302.59;;;1.18;57.81
13581;BME280;6861;46.170;7.222;2022-12-18T08:36:26;97303.50;;;1.25;58.04
13581;BME280;6861;46.170;7.222;2022-12-18T08:38:54;97310.03;;;1.36;57.15
13581;BME280;6861;46.170;7.222;2022-12-18T08:41:23;97310.19;;;1.35;57.85
13581;BME280;6861;46.170;7.222;2022-12-18T08:43:51;97317.03;;;1.27;57.81
13581;BME280;6861;46.170;7.222;2022-12-18T08:46:40;97322.88;;;1.21;57.48
13581;BME280;6861;46.170;7.222;2022-12-18T08:49:10;97316.78;;;1.14;58.32
13581;BME280;6861;46.170;7.222;2022-12-18T08:51:39;97310.03;;;1.13;57.86
13581;BME280;6861;46.170;7.222;2022-12-18T08:54:07;97307.97;;;1.09;58.71
13581;BME280;6861;46.170;7.222;2022-12-18T08:56:35;97314.22;;;1.14;58.25
13581;BME280;6861;46.170;7.222;2022-12-18T08:59:04;97317.13;;;1.11;58.14
13581;BME280;6861;46.170;7.222;2022-12-18T09:01:32;97310.31;;;0.95;57.53
13581;BME280;6861;46.170;7.222;2022-12-18T09:04:02;97312.06;;;0.95;57.95
13581;BME280;6861;46.170;7.222;2022-12-18T09:06:33;97293.69;;;0.98;58.37
13581;BME280;6861;46.170;7.222;2022-12-18T09:09:02;97298.69;;;0.99;58.04
13581;BME280;6861;46.170;7.222;2022-12-18T09:11:32;97298.56;;;0.93;58.52
13581;BME280;6861;46.170;7.222;2022-12-18T09:14:01;97299.88;;;0.89;57.92
13581;BME280;6861;46.170;7.222;2022-12-18T09:16:31;97305.19;;;0.87;58.11
13581;BME280;6861;46.170;7.222;2022-12-18T09:19:04;97294.91;;;0.87;58.66
13581;BME280;6861;46.170;7.222;2022-12-18T09:21:34;97289.13;;;0.85;57.64
13581;BME280;6861;46.170;7.222;2022-12-18T09:24:04;97297.03;;;0.84;57.97
13581;BME280;6861;46.170;7.222;2022-12-18T09:26:34;97306.00;;;0.88;57.86
13581;BME280;6861;46.170;7.222;2022-12-18T09:29:03;97301.78;;;0.95;58.36
13581;BME280;6861;46.170;7.222;2022-12-18T09:31:31;97306.25;;;1.01;58.17
13581;BME280;6861;46.170;7.222;2022-12-18T09:33:59;97312.66;;;1.05;57.84
13581;BME280;6861;46.170;7.222;2022-12-18T09:36:29;97297.47;;;1.10;57.28
13581;BME280;6861;46.170;7.222;2022-12-18T09:38:57;97294.56;;;1.13;57.19
13581;BME280;6861;46.170;7.222;2022-12-18T09:41:41;97294.69;;;1.20;57.93
13581;BME280;6861;46.170;7.222;2022-12-18T09:44:16;97291.88;;;1.29;57.53
13581;BME280;6861;46.170;7.222;2022-12-18T09:46:49;97291.44;;;1.41;57.21
13581;BME280;6861;46.170;7.222;2022-12-18T09:49:23;97288.81;;;1.49;56.43
13581;BME280;6861;46.170;7.222;2022-12-18T09:51:57;97292.63;;;1.53;57.62
13581;BME280;6861;46.170;7.222;2022-12-18T09:54:33;97282.25;;;1.61;57.36
13581;BME280;6861;46.170;7.222;2022-12-18T09:57:04;97283.59;;;1.72;57.22
13581;BME280;6861;46.170;7.222;2022-12-18T09:59:35;97287.84;;;1.79;55.98
13581;BME280;6861;46.170;7.222;2022-12-18T10:02:19;97283.75;;;1.85;56.66
13581;BME280;6861;46.170;7.222;2022-12-18T10:04:59;97286.78;;;1.88;56.50
13581;BME280;6861;46.170;7.222;2022-12-18T10:07:40;97284.56;;;1.85;56.78
13581;BME280;6861;46.170;7.222;2022-12-18T10:10:19;97287.78;;;1.87;56.40
13581;BME280;6861;46.170;7.222;2022-12-18T10:12:57;97284.56;;;1.85;56.13
13581;BME280;6861;46.170;7.222;2022-12-18T10:15:35;97283.94;;;1.83;56.11
13581;BME280;6861;46.170;7.222;2022-12-18T10:18:17;97295.31;;;1.74;56.83
13581;BME280;6861;46.170;7.222;2022-12-18T10:20:52;97278.78;;;1.69;57.06
13581;BME280;6861;46.170;7.222;2022-12-18T10:23:29;97269.53;;;1.59;57.29
13581;BME280;6861;46.170;7.222;2022-12-18T10:26:03;97282.00;;;1.71;56.84
13581;BME280;6861;46.170;7.222;2022-12-18T10:28:33;97259.31;;;1.66;57.18
13581;BME280;6861;46.170;7.222;2022-12-18T10:31:01;97273.00;;;1.81;56.45
13581;BME280;6861;46.170;7.222;2022-12-18T10:33:31;97267.03;;;1.95;56.41
13581;BME280;6861;46.170;7.222;2022-12-18T10:36:00;97250.66;;;1.88;56.23
13581;BME280;6861;46.170;7.222;2022-12-18T10:38:31;97261.97;;;2.02;55.73
13581;BME280;6861;46.170;7.222;2022-12-18T10:41:01;97263.38;;;2.05;56.12
13581;BME280;6861;46.170;7.222;2022-12-18T10:43:31;97250.75;;;1.95;55.67
13581;BME280;6861;46.170;7.222;2022-12-18T10:46:11;97236.50;;;1.84;56.40
13581;BME280;6861;46.170;7.222;2022-12-18T10:48:50;97227.25;;;1.75;56.33
13581;BME280;6861;46.170;7.222;2022-12-18T10:51:21;97235.81;;;1.90;56.19
13581;BME280;6861;46.170;7.222;2022-12-18T10:53:57;97215.59;;;1.94;55.78
13581;BME280;6861;46.170;7.222;2022-12-18T10:56:29;97226.78;;;2.16;55.92
13581;BME280;6861;46.170;7.222;2022-12-18T10:59:00;97219.03;;;2.30;55.53
13581;BME280;6861;46.170;7.222;2022-12-18T11:01:46;97224.09;;;2.39;55.53
13581;BME280;6861;46.170;7.222;2022-12-18T11:04:18;97233.22;;;2.56;55.60
13581;BME280;6861;46.170;7.222;2022-12-18T11:06:58;97226.75;;;2.67;55.22
13581;BME280;6861;46.170;7.222;2022-12-18T11:09:29;97222.69;;;2.79;54.83
13581;BME280;6861;46.170;7.222;2022-12-18T11:12:00;97221.53;;;3.03;54.78
13581;BME280;6861;46.170;7.222;2022-12-18T11:14:31;97228.41;;;3.17;54.54
13581;BME280;6861;46.170;7.222;2022-12-18T11:17:00;97225.75;;;3.32;54.15
13581;BME280;6861;46.170;7.222;2022-12-18T11:19:53;97226.81;;;3.44;54.31
13581;BME280;6861;46.170;7.222;2022-12-18T11:22:24;97221.47;;;3.52;53.88
13581;BME280;6861;46.170;7.222;2022-12-18T11:24:59;97223.94;;;3.60;53.93
13581;BME280;6861;46.170;7.222;2022-12-18T11:27:48;97212.06;;;3.72;53.85
13581;BME280;6861;46.170;7.222;2022-12-18T11:30:23;97213.34;;;3.89;53.22
13581;BME280;6861;46.170;7.222;2022-12-18T11:32:55;97207.06;;;4.05;53.10
13581;BME280;6861;46.170;7.222;2022-12-18T11:35:41;97191.97;;;4.22;52.71
13581;BME280;6861;46.170;7.222;2022-12-18T11:38:18;97201.59;;;4.48;52.19
13581;BME280;6861;46.170;7.222;2022-12-18T11:40:54;97183.69;;;4.59;51.98
13581;BME280;6861;46.170;7.222;2022-12-18T11:43:28;97191.69;;;4.78;51.76
13581;BME280;6861;46.170;7.222;2022-12-18T11:46:01;97172.16;;;4.88;51.64
13581;BME280;6861;46.170;7.222;2022-12-18T11:48:34;97184.94;;;5.03;51.38
13581;BME280;6861;46.170;7.222;2022-12-18T11:51:11;97162.59;;;5.02;51.37
13581;BME280;6861;46.170;7.222;2022-12-18T11:53:42;97158.00;;;5.11;50.41
13581;BME280;6861;46.170;7.222;2022-12-18T11:56:26;97162.16;;;5.32;50.10
13581;BME280;6861;46.170;7.222;2022-12-18T11:59:05;97169.13;;;5.51;50.17
13581;BME280;6861;46.170;7.222;2022-12-18T12:01:45;97173.69;;;5.62;49.57
13581;BME280;6861;46.170;7.222;2022-12-18T12:07:34;97167.28;;;5.71;49.10
13581;BME280;6861;46.170;7.222;2022-12-18T12:10:18;97161.09;;;5.72;49.41
13581;BME280;6861;46.170;7.222;2022-12-18T12:13:02;97147.69;;;5.75;48.90
13581;BME280;6861;46.170;7.222;2022-12-18T12:15:44;97150.06;;;5.83;49.15
13581;BME280;6861;46.170;7.222;2022-12-18T12:18:24;97146.69;;;5.89;48.64
13581;BME280;6861;46.170;7.222;2022-12-18T12:20:59;97144.81;;;6.03;48.42
13581;BME280;6861;46.170;7.222;2022-12-18T12:23:38;97134.75;;;6.13;47.70
13581;BME280;6861;46.170;7.222;2022-12-18T12:26:14;97128.28;;;6.29;47.99
13581;BME280;6861;46.170;7.222;2022-12-18T12:29:01;97121.03;;;6.38;47.86
13581;BME280;6861;46.170;7.222;2022-12-18T12:31:46;97114.63;;;6.40;47.23
13581;BME280;6861;46.170;7.222;2022-12-18T12:34:19;97121.16;;;6.49;47.27
13581;BME280;6861;46.170;7.222;2022-12-18T12:37:01;97110.34;;;6.52;47.49
13581;BME280;6861;46.170;7.222;2022-12-18T12:39:34;97110.94;;;6.54;47.28
13581;BME280;6861;46.170;7.222;2022-12-18T12:42:04;97101.69;;;6.58;46.83
13581;BME280;6861;46.170;7.222;2022-12-18T12:45:17;97091.66;;;6.62;46.30
13581;BME280;6861;46.170;7.222;2022-12-18T12:47:49;97094.22;;;6.69;46.25
13581;BME280;6861;46.170;7.222;2022-12-18T12:50:20;97084.47;;;6.64;46.50
13581;BME280;6861;46.170;7.222;2022-12-18T12:52:52;97079.31;;;6.57;45.86
13581;BME280;6861;46.170;7.222;2022-12-18T12:55:22;97079.53;;;6.56;45.24
13581;BME280;6861;46.170;7.222;2022-12-18T12:57:59;97061.94;;;6.51;45.69
13581;BME280;6861;46.170;7.222;2022-12-18T13:00:38;97062.22;;;6.43;45.27
13581;BME280;6861;46.170;7.222;2022-12-18T13:03:15;97069.63;;;6.40;45.33
13581;BME280;6861;46.170;7.222;2022-12-18T13:05:49;97066.88;;;6.35;46.36
13581;BME280;6861;46.170;7.222;2022-12-18T13:08:23;97070.25;;;6.35;45.60
13581;BME280;6861;46.170;7.222;2022-12-18T13:10:55;97075.47;;;6.35;46.04
13581;BME280;6861;46.170;7.222;2022-12-18T13:13:49;97072.84;;;6.35;46.17
13581;BME280;6861;46.170;7.222;2022-12-18T13:16:20;97065.84;;;6.36;45.95
13581;BME280;6861;46.170;7.222;2022-12-18T13:18:50;97070.84;;;6.37;45.42
13581;BME280;6861;46.170;7.222;2022-12-18T13:21:22;97073.44;;;6.37;45.77
13581;BME280;6861;46.170;7.222;2022-12-18T13:23:51;97073.44;;;6.37;44.69
13581;BME280;6861;46.170;7.222;2022-12-18T13:26:38;97069.03;;;6.38;44.81
13581;BME280;6861;46.170;7.222;2022-12-18T13:29:06;97069.84;;;6.38;44.62
13581;BME280;6861;46.170;7.222;2022-12-18T13:32:22;97073.03;;;6.40;44.39
13581;BME280;6861;46.170;7.222;2022-12-18T13:37:54;97073.88;;;6.34;45.03
13581;BME280;6861;46.170;7.222;2022-12-18T13:40:56;97067.06;;;6.33;44.91
13581;BME280;6861;46.170;7.222;2022-12-18T13:43:39;97070.09;;;6.30;45.13
13581;BME280;6861;46.170;7.222;2022-12-18T13:46:21;97070.50;;;6.27;45.20
13581;BME280;6861;46.170;7.222;2022-12-18T13:48:55;97074.91;;;6.27;44.85
13581;BME280;6861;46.170;7.222;2022-12-18T13:51:24;97071.94;;;6.23;44.26
13581;BME280;6861;46.170;7.222;2022-12-18T13:53:55;97071.94;;;6.23;44.69